createdAt,value
2019-01-06T00:00:36.161Z,5.89
2019-01-06T00:01:35.863Z,5.89
2019-01-06T00:02:35.863Z,5.82
2019-01-06T00:03:35.841Z,5.86
2019-01-06T00:04:35.645Z,5.89
2019-01-06T00:05:36.069Z,5.87
2019-01-06T00:06:35.874Z,5.83
2019-01-06T00:07:36.051Z,5.91
2019-01-06T00:08:35.802Z,5.86
2019-01-06T00:09:35.796Z,5.91
2019-01-06T00:10:36.051Z,5.93
2019-01-06T00:11:35.792Z,5.9
2019-01-06T00:12:36.014Z,5.93
2019-01-06T00:13:36.005Z,5.87
2019-01-06T00:14:36.011Z,5.87
2019-01-06T00:15:36.098Z,5.87
2019-01-06T00:16:36.002Z,5.93
2019-01-06T00:17:35.483Z,5.87
2019-01-06T00:18:35.974Z,5.91
2019-01-06T00:19:35.756Z,5.91
2019-01-06T00:20:35.993Z,5.82
2019-01-06T00:21:35.693Z,5.93
2019-01-06T00:22:35.512Z,5.86
2019-01-06T00:23:35.676Z,5.86
2019-01-06T00:24:35.911Z,5.87
2019-01-06T00:25:35.517Z,5.97
2019-01-06T00:26:35.789Z,5.84
2019-01-06T00:27:35.645Z,5.82
2019-01-06T00:28:35.712Z,5.8
2019-01-06T00:29:35.432Z,5.82
2019-01-06T00:30:35.652Z,5.89
2019-01-06T00:31:37.742Z,5.82
2019-01-06T00:32:35.344Z,5.8
2019-01-06T00:33:35.428Z,5.86
2019-01-06T00:34:35.852Z,5.82
2019-01-06T00:35:35.568Z,5.82
2019-01-06T00:36:35.650Z,5.84
2019-01-06T00:37:35.810Z,5.75
2019-01-06T00:38:35.529Z,5.72
2019-01-06T00:39:35.713Z,5.79
2019-01-06T00:40:35.508Z,5.79
2019-01-06T00:41:35.577Z,5.72
2019-01-06T00:42:35.583Z,5.82
2019-01-06T00:43:35.606Z,5.73
2019-01-06T00:44:35.730Z,5.73
2019-01-06T00:45:35.710Z,5.82
2019-01-06T00:46:35.808Z,5.75
2019-01-06T00:47:35.203Z,5.72
2019-01-06T00:48:35.436Z,5.75
2019-01-06T00:49:35.234Z,5.68
2019-01-06T00:50:35.671Z,5.71
2019-01-06T00:51:35.670Z,5.73
2019-01-06T00:52:35.664Z,5.73
2019-01-06T00:53:35.149Z,5.76
2019-01-06T00:54:35.638Z,5.75
2019-01-06T00:55:35.375Z,5.75
2019-01-06T00:56:35.630Z,5.72
2019-01-06T00:57:35.133Z,5.71
2019-01-06T00:58:35.109Z,5.62
2019-01-06T00:59:35.347Z,5.66
2019-01-06T01:00:35.584Z,5.65
2019-01-06T01:01:35.619Z,5.64
2019-01-06T01:02:35.068Z,5.61
2019-01-06T01:03:35.563Z,5.66
2019-01-06T01:04:35.107Z,5.65
2019-01-06T01:05:35.042Z,5.62
2019-01-06T01:06:35.332Z,5.61
2019-01-06T01:07:35.557Z,5.59
2019-01-06T01:08:35.526Z,5.59
2019-01-06T01:09:35.940Z,5.56
2019-01-06T01:10:35.021Z,5.57
2019-01-06T01:11:35.053Z,5.51
2019-01-06T01:12:35.463Z,5.47
2019-01-06T01:13:35.211Z,5.51
2019-01-06T01:14:35.265Z,5.46
2019-01-06T01:15:35.303Z,5.51
2019-01-06T01:16:35.069Z,5.54
2019-01-06T01:17:35.206Z,5.56
2019-01-06T01:18:35.412Z,5.56
2019-01-06T01:19:36.427Z,5.56
2019-01-06T01:20:35.186Z,5.54
2019-01-06T01:21:35.240Z,5.51
2019-01-06T01:22:35.136Z,5.57
2019-01-06T01:23:34.892Z,5.5
2019-01-06T01:24:35.156Z,5.54
2019-01-06T01:25:35.107Z,5.61
2019-01-06T01:26:35.517Z,5.64
2019-01-06T01:27:35.082Z,5.51
2019-01-06T01:28:35.326Z,5.46
2019-01-06T01:29:35.111Z,5.54
2019-01-06T01:30:35.076Z,5.62
2019-01-06T01:31:34.903Z,5.61
2019-01-06T01:32:35.285Z,5.56
2019-01-06T01:33:34.781Z,5.59
2019-01-06T01:34:35.269Z,5.54
2019-01-06T01:35:34.784Z,5.59
2019-01-06T01:36:35.043Z,5.5
2019-01-06T01:37:34.976Z,5.54
2019-01-06T01:38:35.236Z,5.59
2019-01-06T01:39:35.218Z,5.66
2019-01-06T01:40:35.086Z,5.57
2019-01-06T01:41:35.128Z,5.47
2019-01-06T01:42:34.944Z,5.46
2019-01-06T01:43:34.931Z,5.48
2019-01-06T01:44:35.168Z,5.65
2019-01-06T01:45:35.174Z,5.54
2019-01-06T01:46:34.737Z,5.51
2019-01-06T01:47:35.144Z,5.53
2019-01-06T01:48:34.891Z,5.46
2019-01-06T01:49:35.139Z,5.65
2019-01-06T01:50:35.124Z,5.57
2019-01-06T01:51:35.128Z,5.56
2019-01-06T01:52:35.095Z,5.62
2019-01-06T01:53:34.593Z,5.57
2019-01-06T01:54:34.838Z,5.47
2019-01-06T01:55:34.574Z,5.59
2019-01-06T01:56:35.100Z,5.56
2019-01-06T01:57:34.570Z,5.53
2019-01-06T01:58:35.051Z,5.54
2019-01-06T01:59:34.803Z,5.62
2019-01-06T02:00:35.027Z,5.53
2019-01-06T02:01:34.867Z,5.53
2019-01-06T02:02:35.006Z,5.59
2019-01-06T02:03:35.060Z,5.57
2019-01-06T02:04:34.743Z,5.59
2019-01-06T02:05:34.965Z,5.5
2019-01-06T02:06:34.731Z,5.56
2019-01-06T02:07:34.968Z,5.57
2019-01-06T02:08:34.862Z,5.59
2019-01-06T02:09:34.956Z,5.56
2019-01-06T02:10:34.745Z,5.65
2019-01-06T02:11:34.760Z,5.56
2019-01-06T02:12:34.663Z,5.62
2019-01-06T02:13:34.953Z,5.62
2019-01-06T02:14:34.955Z,5.65
2019-01-06T02:15:34.651Z,5.64
2019-01-06T02:16:34.657Z,5.61
2019-01-06T02:17:34.642Z,5.56
2019-01-06T02:18:34.615Z,5.59
2019-01-06T02:19:34.353Z,5.64
2019-01-06T02:20:37.313Z,5.62
2019-01-06T02:21:34.888Z,5.62
2019-01-06T02:22:34.578Z,5.62
2019-01-06T02:23:34.868Z,5.64
2019-01-06T02:24:34.805Z,5.64
2019-01-06T02:25:34.558Z,5.66
2019-01-06T02:26:34.897Z,5.61
2019-01-06T02:27:34.783Z,5.62
2019-01-06T02:28:34.544Z,5.65
2019-01-06T02:29:34.802Z,5.62
2019-01-06T02:30:34.505Z,5.56
2019-01-06T02:31:34.751Z,5.57
2019-01-06T02:32:36.405Z,5.56
2019-01-06T02:33:34.810Z,5.68
2019-01-06T02:34:34.712Z,5.66
2019-01-06T02:35:34.701Z,5.65
2019-01-06T02:36:34.435Z,5.62
2019-01-06T02:37:34.691Z,5.56
2019-01-06T02:38:34.429Z,5.61
2019-01-06T02:39:34.420Z,5.64
2019-01-06T02:40:34.657Z,5.5
2019-01-06T02:41:34.719Z,5.59
2019-01-06T02:42:34.641Z,5.56
2019-01-06T02:43:34.624Z,5.57
2019-01-06T02:44:34.370Z,5.51
2019-01-06T02:45:34.613Z,5.51
2019-01-06T02:46:34.596Z,5.54
2019-01-06T02:47:34.588Z,5.54
2019-01-06T02:48:34.586Z,5.47
2019-01-06T02:49:34.590Z,5.46
2019-01-06T02:50:37.008Z,5.46
2019-01-06T02:51:34.605Z,5.47
2019-01-06T02:52:34.552Z,5.48
2019-01-06T02:53:34.538Z,5.44
2019-01-06T02:54:34.592Z,5.47
2019-01-06T02:55:34.526Z,5.47
2019-01-06T02:56:34.311Z,5.41
2019-01-06T02:57:34.040Z,5.44
2019-01-06T02:58:34.501Z,5.5
2019-01-06T02:59:34.493Z,5.51
2019-01-06T03:00:34.468Z,5.48
2019-01-06T03:01:34.459Z,5.47
2019-01-06T03:02:34.446Z,5.47
2019-01-06T03:03:34.473Z,5.44
2019-01-06T03:04:34.193Z,5.48
2019-01-06T03:05:34.442Z,5.47
2019-01-06T03:06:34.265Z,5.48
2019-01-06T03:07:34.165Z,5.48
2019-01-06T03:08:34.158Z,5.54
2019-01-06T03:09:34.401Z,5.5
2019-01-06T03:10:34.145Z,5.57
2019-01-06T03:11:33.945Z,5.54
2019-01-06T03:12:33.857Z,5.48
2019-01-06T03:13:34.104Z,5.56
2019-01-06T03:14:34.343Z,5.62
2019-01-06T03:15:34.329Z,5.56
2019-01-06T03:16:34.074Z,5.47
2019-01-06T03:17:34.067Z,5.61
2019-01-06T03:18:34.304Z,5.54
2019-01-06T03:19:34.310Z,5.54
2019-01-06T03:20:36.599Z,5.53
2019-01-06T03:21:34.094Z,5.54
2019-01-06T03:22:34.272Z,5.56
2019-01-06T03:23:34.020Z,5.62
2019-01-06T03:24:34.005Z,5.51
2019-01-06T03:25:34.253Z,5.54
2019-01-06T03:26:34.272Z,5.56
2019-01-06T03:27:34.266Z,5.56
2019-01-06T03:28:34.227Z,5.59
2019-01-06T03:29:34.192Z,5.57
2019-01-06T03:30:33.718Z,5.56
2019-01-06T03:31:34.141Z,5.59
2019-01-06T03:32:34.206Z,5.56
2019-01-06T03:33:34.189Z,5.56
2019-01-06T03:34:34.165Z,5.54
2019-01-06T03:35:33.711Z,5.46
2019-01-06T03:36:33.939Z,5.61
2019-01-06T03:37:34.129Z,5.54
2019-01-06T03:38:34.132Z,5.54
2019-01-06T03:39:34.119Z,5.56
2019-01-06T03:40:33.852Z,5.53
2019-01-06T03:41:34.167Z,5.5
2019-01-06T03:42:34.080Z,5.54
2019-01-06T03:43:33.825Z,5.5
2019-01-06T03:44:33.816Z,5.44
2019-01-06T03:45:34.058Z,5.44
2019-01-06T03:46:34.047Z,5.46
2019-01-06T03:47:34.061Z,5.44
2019-01-06T03:48:33.777Z,5.46
2019-01-06T03:49:34.033Z,5.39
2019-01-06T03:50:33.749Z,5.53
2019-01-06T03:51:33.752Z,5.5
2019-01-06T03:52:33.992Z,5.51
2019-01-06T03:53:33.725Z,5.43
2019-01-06T03:54:33.728Z,5.41
2019-01-06T03:55:33.704Z,5.39
2019-01-06T03:56:34.040Z,5.38
2019-01-06T03:57:33.946Z,5.38
2019-01-06T03:58:33.680Z,5.39
2019-01-06T03:59:33.469Z,5.44
2019-01-06T04:00:34.015Z,5.36
2019-01-06T04:01:33.918Z,5.36
2019-01-06T04:02:33.653Z,5.41
2019-01-06T04:03:33.892Z,5.43
2019-01-06T04:04:33.882Z,5.41
2019-01-06T04:05:33.870Z,5.41
2019-01-06T04:06:33.991Z,5.47
2019-01-06T04:07:33.846Z,5.48
2019-01-06T04:08:33.849Z,5.5
2019-01-06T04:09:33.849Z,5.48
2019-01-06T04:10:33.820Z,5.51
2019-01-06T04:11:33.580Z,5.51
2019-01-06T04:12:33.587Z,5.44
2019-01-06T04:13:33.798Z,5.47
2019-01-06T04:14:33.800Z,5.5
2019-01-06T04:15:33.789Z,5.5
2019-01-06T04:16:33.827Z,5.47
2019-01-06T04:17:35.385Z,5.38
2019-01-06T04:18:33.742Z,5.5
2019-01-06T04:19:33.483Z,5.43
2019-01-06T04:20:33.483Z,5.5
2019-01-06T04:21:34.796Z,5.47
2019-01-06T04:22:33.712Z,5.43
2019-01-06T04:23:33.694Z,5.47
2019-01-06T04:24:33.559Z,5.48
2019-01-06T04:25:33.706Z,5.36
2019-01-06T04:26:33.502Z,5.48
2019-01-06T04:27:33.685Z,5.36
2019-01-06T04:28:33.419Z,5.43
2019-01-06T04:29:33.404Z,5.39
2019-01-06T04:30:33.170Z,5.33
2019-01-06T04:31:33.633Z,5.39
2019-01-06T04:32:33.371Z,5.38
2019-01-06T04:33:33.360Z,5.38
2019-01-06T04:34:33.362Z,5.38
2019-01-06T04:35:33.360Z,5.48
2019-01-06T04:36:33.757Z,5.38
2019-01-06T04:37:33.573Z,5.35
2019-01-06T04:38:33.328Z,5.44
2019-01-06T04:39:33.553Z,5.35
2019-01-06T04:40:33.544Z,5.43
2019-01-06T04:41:33.320Z,5.43
2019-01-06T04:42:33.288Z,5.3
2019-01-06T04:43:33.529Z,5.33
2019-01-06T04:44:33.265Z,5.41
2019-01-06T04:45:33.508Z,5.39
2019-01-06T04:46:33.608Z,5.41
2019-01-06T04:47:33.499Z,5.36
2019-01-06T04:48:33.232Z,5.36
2019-01-06T04:49:33.475Z,5.41
2019-01-06T04:50:33.199Z,5.46
2019-01-06T04:51:34.826Z,5.35
2019-01-06T04:52:33.447Z,5.36
2019-01-06T04:53:33.424Z,5.33
2019-01-06T04:54:33.414Z,5.39
2019-01-06T04:55:33.412Z,5.38
2019-01-06T04:56:33.474Z,5.36
2019-01-06T04:57:33.389Z,5.39
2019-01-06T04:58:33.153Z,5.39
2019-01-06T04:59:33.366Z,5.33
2019-01-06T05:00:33.121Z,5.36
2019-01-06T05:01:33.356Z,5.35
2019-01-06T05:02:33.355Z,5.32
2019-01-06T05:03:33.331Z,5.36
2019-01-06T05:04:33.316Z,5.3
2019-01-06T05:05:33.065Z,5.38
2019-01-06T05:06:33.376Z,5.38
2019-01-06T05:07:33.300Z,5.29
2019-01-06T05:08:33.295Z,5.26
2019-01-06T05:09:33.273Z,5.3
2019-01-06T05:10:33.263Z,5.33
2019-01-06T05:11:33.045Z,5.32
2019-01-06T05:12:33.011Z,5.35
2019-01-06T05:13:33.250Z,5.26
2019-01-06T05:14:32.995Z,5.28
2019-01-06T05:15:32.983Z,5.26
2019-01-06T05:16:33.265Z,5.26
2019-01-06T05:17:32.698Z,5.33
2019-01-06T05:18:33.202Z,5.26
2019-01-06T05:19:33.179Z,5.3
2019-01-06T05:20:32.920Z,5.32
2019-01-06T05:21:33.056Z,5.25
2019-01-06T05:22:32.910Z,5.26
2019-01-06T05:23:32.889Z,5.28
2019-01-06T05:24:32.879Z,5.28
2019-01-06T05:25:33.143Z,5.23
2019-01-06T05:26:32.870Z,5.28
2019-01-06T05:27:33.114Z,5.3
2019-01-06T05:28:32.844Z,5.28
2019-01-06T05:29:32.861Z,5.29
2019-01-06T05:30:33.069Z,5.25
2019-01-06T05:31:33.156Z,5.3
2019-01-06T05:32:32.804Z,5.28
2019-01-06T05:33:33.051Z,5.32
2019-01-06T05:34:33.033Z,5.3
2019-01-06T05:35:33.029Z,5.25
2019-01-06T05:36:33.121Z,5.3
2019-01-06T05:37:33.010Z,5.26
2019-01-06T05:38:32.755Z,5.26
2019-01-06T05:39:33.011Z,5.26
2019-01-06T05:40:32.777Z,5.21
2019-01-06T05:41:33.024Z,5.29
2019-01-06T05:42:32.982Z,5.3
2019-01-06T05:43:32.962Z,5.32
2019-01-06T05:44:32.718Z,5.3
2019-01-06T05:45:32.965Z,5.3
2019-01-06T05:46:32.766Z,5.29
2019-01-06T05:47:32.665Z,5.26
2019-01-06T05:48:32.911Z,5.29
2019-01-06T05:49:32.694Z,5.29
2019-01-06T05:50:32.901Z,5.32
2019-01-06T05:51:32.636Z,5.25
2019-01-06T05:52:33.750Z,5.29
2019-01-06T05:53:32.840Z,5.28
2019-01-06T05:54:32.820Z,5.28
2019-01-06T05:55:32.822Z,5.25
2019-01-06T05:56:32.866Z,5.25
2019-01-06T05:57:32.566Z,5.3
2019-01-06T05:58:32.297Z,5.28
2019-01-06T05:59:32.571Z,5.29
2019-01-06T06:00:32.852Z,5.21
2019-01-06T06:01:32.821Z,5.3
2019-01-06T06:02:32.536Z,5.32
2019-01-06T06:03:32.289Z,5.29
2019-01-06T06:04:32.512Z,5.21
2019-01-06T06:05:32.254Z,5.3
2019-01-06T06:06:32.835Z,5.28
2019-01-06T06:07:35.005Z,5.28
2019-01-06T06:08:32.473Z,5.26
2019-01-06T06:09:32.724Z,5.29
2019-01-06T06:10:32.709Z,5.28
2019-01-06T06:11:32.769Z,5.3
2019-01-06T06:12:32.441Z,5.26
2019-01-06T06:13:32.664Z,5.3
2019-01-06T06:14:32.686Z,5.29
2019-01-06T06:15:32.665Z,5.26
2019-01-06T06:16:32.681Z,5.26
2019-01-06T06:17:32.387Z,5.26
2019-01-06T06:18:32.623Z,5.25
2019-01-06T06:19:32.622Z,5.26
2019-01-06T06:20:32.365Z,5.29
2019-01-06T06:21:32.688Z,5.26
2019-01-06T06:22:32.100Z,5.2
2019-01-06T06:23:32.337Z,5.29
2019-01-06T06:24:32.570Z,5.23
2019-01-06T06:25:32.629Z,5.25
2019-01-06T06:26:32.659Z,5.25
2019-01-06T06:27:32.283Z,5.21
2019-01-06T06:28:33.099Z,5.3
2019-01-06T06:29:32.280Z,5.21
2019-01-06T06:30:32.614Z,5.21
2019-01-06T06:31:32.055Z,5.21
2019-01-06T06:32:32.488Z,5.28
2019-01-06T06:33:32.252Z,5.25
2019-01-06T06:34:32.478Z,5.17
2019-01-06T06:35:32.458Z,5.17
2019-01-06T06:36:32.494Z,5.25
2019-01-06T06:37:32.443Z,5.21
2019-01-06T06:38:31.939Z,5.26
2019-01-06T06:39:32.421Z,5.21
2019-01-06T06:40:32.165Z,5.28
2019-01-06T06:41:32.446Z,5.25
2019-01-06T06:42:32.390Z,5.28
2019-01-06T06:43:32.135Z,5.17
2019-01-06T06:44:32.378Z,5.2
2019-01-06T06:45:32.127Z,5.18
2019-01-06T06:46:32.136Z,5.17
2019-01-06T06:47:32.105Z,5.29
2019-01-06T06:48:32.339Z,5.26
2019-01-06T06:49:31.832Z,5.3
2019-01-06T06:50:32.083Z,5.28
2019-01-06T06:51:32.136Z,5.26
2019-01-06T06:52:32.067Z,5.2
2019-01-06T06:53:34.196Z,5.28
2019-01-06T06:54:32.289Z,5.17
2019-01-06T06:55:32.290Z,5.14
2019-01-06T06:56:32.327Z,5.1
2019-01-06T06:57:32.255Z,5.3
2019-01-06T06:58:32.007Z,5.2
2019-01-06T06:59:32.236Z,5.2
2019-01-06T07:00:32.229Z,5.25
2019-01-06T07:01:31.802Z,5.29
2019-01-06T07:02:31.972Z,5.25
2019-01-06T07:03:32.209Z,5.29
2019-01-06T07:04:31.947Z,5.29
2019-01-06T07:05:32.195Z,5.28
2019-01-06T07:06:32.247Z,5.29
2019-01-06T07:07:32.169Z,5.32
2019-01-06T07:08:32.221Z,5.26
2019-01-06T07:09:31.654Z,5.25
2019-01-06T07:10:32.148Z,5.32
2019-01-06T07:11:31.712Z,5.3
2019-01-06T07:12:31.908Z,5.23
2019-01-06T07:13:32.200Z,5.29
2019-01-06T07:14:31.607Z,5.26
2019-01-06T07:15:31.853Z,5.3
2019-01-06T07:16:31.845Z,5.33
2019-01-06T07:17:32.063Z,5.26
2019-01-06T07:18:31.930Z,5.3
2019-01-06T07:19:31.807Z,5.3
2019-01-06T07:20:31.802Z,5.28
2019-01-06T07:21:31.839Z,5.28
2019-01-06T07:22:31.534Z,5.28
2019-01-06T07:23:31.762Z,5.25
2019-01-06T07:24:31.515Z,5.28
2019-01-06T07:25:31.765Z,5.32
2019-01-06T07:26:32.010Z,5.32
2019-01-06T07:27:31.983Z,5.26
2019-01-06T07:28:31.983Z,5.23
2019-01-06T07:29:31.728Z,5.28
2019-01-06T07:30:31.987Z,5.36
2019-01-06T07:31:31.967Z,5.3
2019-01-06T07:32:31.937Z,5.35
2019-01-06T07:33:31.694Z,5.32
2019-01-06T07:34:31.425Z,5.29
2019-01-06T07:35:31.910Z,5.33
2019-01-06T07:36:31.903Z,5.32
2019-01-06T07:37:31.398Z,5.3
2019-01-06T07:38:31.893Z,5.28
2019-01-06T07:39:31.877Z,5.3
2019-01-06T07:40:31.701Z,5.29
2019-01-06T07:41:31.922Z,5.28
2019-01-06T07:42:31.841Z,5.33
2019-01-06T07:43:31.665Z,5.32
2019-01-06T07:44:31.845Z,5.28
2019-01-06T07:45:31.818Z,5.26
2019-01-06T07:46:31.379Z,5.28
2019-01-06T07:47:31.810Z,5.26
2019-01-06T07:48:31.544Z,5.28
2019-01-06T07:49:31.289Z,5.28
2019-01-06T07:50:31.768Z,5.29
2019-01-06T07:51:31.594Z,5.3
2019-01-06T07:52:31.511Z,5.25
2019-01-06T07:53:31.564Z,5.25
2019-01-06T07:54:32.036Z,5.32
2019-01-06T07:55:31.484Z,5.28
2019-01-06T07:56:31.820Z,5.29
2019-01-06T07:57:31.712Z,5.26
2019-01-06T07:58:31.271Z,5.26
2019-01-06T07:59:31.444Z,5.28
2019-01-06T08:00:31.701Z,5.25
2019-01-06T08:01:31.429Z,5.32
2019-01-06T08:02:33.576Z,5.29
2019-01-06T08:03:31.406Z,5.29
2019-01-06T08:04:31.657Z,5.28
2019-01-06T08:05:31.387Z,5.25
2019-01-06T08:06:31.415Z,5.2
2019-01-06T08:07:31.608Z,5.23
2019-01-06T08:08:31.615Z,5.2
2019-01-06T08:09:31.398Z,5.28
2019-01-06T08:10:31.406Z,5.28
2019-01-06T08:11:31.674Z,5.29
2019-01-06T08:12:31.599Z,5.26
2019-01-06T08:13:31.628Z,5.28
2019-01-06T08:14:31.544Z,5.28
2019-01-06T08:15:31.313Z,5.28
2019-01-06T08:16:31.111Z,5.25
2019-01-06T08:17:31.517Z,5.29
2019-01-06T08:18:31.297Z,5.29
2019-01-06T08:19:31.012Z,5.26
2019-01-06T08:20:32.802Z,5.26
2019-01-06T08:21:31.481Z,5.29
2019-01-06T08:22:31.240Z,5.29
2019-01-06T08:23:31.242Z,5.3
2019-01-06T08:24:31.458Z,5.38
2019-01-06T08:25:30.971Z,5.38
2019-01-06T08:26:31.258Z,5.35
2019-01-06T08:27:31.440Z,5.38
2019-01-06T08:28:31.458Z,5.44
2019-01-06T08:29:31.167Z,5.41
2019-01-06T08:30:31.406Z,5.36
2019-01-06T08:31:31.389Z,5.39
2019-01-06T08:32:31.380Z,5.38
2019-01-06T08:33:31.130Z,5.36
2019-01-06T08:34:31.364Z,5.39
2019-01-06T08:35:31.136Z,5.41
2019-01-06T08:36:31.376Z,5.41
2019-01-06T08:37:31.108Z,5.43
2019-01-06T08:38:31.354Z,5.41
2019-01-06T08:39:31.082Z,5.39
2019-01-06T08:40:31.377Z,5.35
2019-01-06T08:41:31.075Z,5.35
2019-01-06T08:42:31.046Z,5.35
2019-01-06T08:43:31.290Z,5.44
2019-01-06T08:44:31.034Z,5.41
2019-01-06T08:45:31.265Z,5.3
2019-01-06T08:46:30.809Z,5.36
2019-01-06T08:47:31.013Z,5.39
2019-01-06T08:48:30.998Z,5.41
2019-01-06T08:49:30.989Z,5.39
2019-01-06T08:50:30.973Z,5.39
2019-01-06T08:51:31.303Z,5.41
2019-01-06T08:52:31.199Z,5.44
2019-01-06T08:53:31.215Z,5.39
2019-01-06T08:54:31.184Z,5.44
2019-01-06T08:55:35.198Z,5.39
2019-01-06T08:56:32.433Z,5.38
2019-01-06T08:57:31.171Z,5.41
2019-01-06T08:58:31.162Z,5.41
2019-01-06T08:59:30.651Z,5.38
2019-01-06T09:00:30.918Z,5.41
2019-01-06T09:01:30.955Z,5.41
2019-01-06T09:02:30.870Z,5.46
2019-01-06T09:03:31.118Z,5.38
2019-01-06T09:04:30.853Z,5.43
2019-01-06T09:05:31.880Z,5.47
2019-01-06T09:06:31.187Z,5.36
2019-01-06T09:07:30.812Z,5.44
2019-01-06T09:08:30.828Z,5.36
2019-01-06T09:09:30.786Z,5.41
2019-01-06T09:10:30.535Z,5.41
2019-01-06T09:11:30.518Z,5.41
2019-01-06T09:12:30.766Z,5.41
2019-01-06T09:13:31.014Z,5.43
2019-01-06T09:14:31.028Z,5.38
2019-01-06T09:15:30.991Z,5.36
2019-01-06T09:16:31.033Z,5.38
2019-01-06T09:17:31.029Z,5.43
2019-01-06T09:18:30.714Z,5.43
2019-01-06T09:19:30.723Z,5.38
2019-01-06T09:20:30.961Z,5.39
2019-01-06T09:21:30.532Z,5.39
2019-01-06T09:22:30.683Z,5.36
2019-01-06T09:23:30.683Z,5.44
2019-01-06T09:24:30.398Z,5.47
2019-01-06T09:25:30.408Z,5.48
2019-01-06T09:26:30.683Z,5.44
2019-01-06T09:27:30.640Z,5.47
2019-01-06T09:28:30.933Z,5.48
2019-01-06T09:29:32.393Z,5.48
2019-01-06T09:30:30.869Z,5.54
2019-01-06T09:31:31.657Z,5.46
2019-01-06T09:32:30.836Z,5.51
2019-01-06T09:33:30.588Z,5.54
2019-01-06T09:34:30.826Z,5.51
2019-01-06T09:35:31.180Z,5.54
2019-01-06T09:36:30.878Z,5.48
2019-01-06T09:37:30.790Z,5.5
2019-01-06T09:38:30.793Z,5.5
2019-01-06T09:39:30.772Z,5.51
2019-01-06T09:40:31.947Z,5.5
2019-01-06T09:41:31.576Z,5.5
2019-01-06T09:42:30.752Z,5.54
2019-01-06T09:43:30.739Z,5.56
2019-01-06T09:44:30.481Z,5.61
2019-01-06T09:45:31.014Z,5.61
2019-01-06T09:46:30.553Z,5.61
2019-01-06T09:47:30.206Z,5.51
2019-01-06T09:48:30.451Z,5.51
2019-01-06T09:49:30.688Z,5.53
2019-01-06T09:50:30.685Z,5.56
2019-01-06T09:51:30.197Z,5.61
2019-01-06T09:52:30.666Z,5.54
2019-01-06T09:53:30.650Z,5.54
2019-01-06T09:54:30.668Z,5.56
2019-01-06T09:55:30.633Z,5.54
2019-01-06T09:56:30.404Z,5.54
2019-01-06T09:57:30.622Z,5.64
2019-01-06T09:58:30.608Z,5.47
2019-01-06T09:59:30.596Z,5.48
2019-01-06T10:00:30.343Z,5.64
2019-01-06T10:01:30.652Z,5.59
2019-01-06T10:02:30.328Z,5.54
2019-01-06T10:03:30.578Z,5.57
2019-01-06T10:04:37.560Z,5.64
2019-01-06T10:05:30.545Z,5.64
2019-01-06T10:06:30.611Z,5.54
2019-01-06T10:07:30.527Z,5.65
2019-01-06T10:08:30.537Z,5.59
2019-01-06T10:09:30.512Z,5.57
2019-01-06T10:10:30.264Z,5.59
2019-01-06T10:11:30.563Z,5.57
2019-01-06T10:12:30.531Z,5.62
2019-01-06T10:13:30.472Z,5.57
2019-01-06T10:14:30.232Z,5.68
2019-01-06T10:15:30.463Z,5.66
2019-01-06T10:16:30.477Z,5.65
2019-01-06T10:17:30.498Z,5.68
2019-01-06T10:18:30.190Z,5.66
2019-01-06T10:19:30.201Z,5.71
2019-01-06T10:20:30.150Z,5.66
2019-01-06T10:21:30.558Z,5.72
2019-01-06T10:22:30.413Z,5.82
2019-01-06T10:23:29.907Z,5.82
2019-01-06T10:24:30.421Z,5.82
2019-01-06T10:25:30.140Z,5.82
2019-01-06T10:26:30.123Z,5.83
2019-01-06T10:27:32.255Z,5.84
2019-01-06T10:28:30.343Z,5.84
2019-01-06T10:29:30.342Z,5.84
2019-01-06T10:30:30.346Z,5.79
2019-01-06T10:31:30.387Z,5.82
2019-01-06T10:32:30.310Z,5.76
2019-01-06T10:33:30.060Z,5.79
2019-01-06T10:34:31.898Z,5.84
2019-01-06T10:35:30.295Z,5.84
2019-01-06T10:36:30.318Z,5.91
2019-01-06T10:37:30.361Z,5.94
2019-01-06T10:38:30.267Z,5.86
2019-01-06T10:39:29.994Z,5.9
2019-01-06T10:40:30.230Z,5.99
2019-01-06T10:41:30.080Z,5.97
2019-01-06T10:42:30.178Z,5.89
2019-01-06T10:43:30.035Z,5.89
2019-01-06T10:44:29.960Z,5.91
2019-01-06T10:45:29.965Z,5.84
2019-01-06T10:46:30.193Z,5.91
2019-01-06T10:47:30.179Z,5.93
2019-01-06T10:48:29.929Z,5.83
2019-01-06T10:49:30.156Z,5.86
2019-01-06T10:50:30.793Z,5.83
2019-01-06T10:51:30.247Z,5.8
2019-01-06T10:52:30.154Z,5.84
2019-01-06T10:53:29.629Z,5.82
2019-01-06T10:54:30.145Z,5.89
2019-01-06T10:55:30.102Z,5.87
2019-01-06T10:56:29.896Z,5.83
2019-01-06T10:57:30.401Z,5.86
2019-01-06T10:58:30.099Z,5.83
2019-01-06T10:59:30.096Z,5.91
2019-01-06T11:00:30.100Z,5.84
2019-01-06T11:01:29.820Z,5.89
2019-01-06T11:02:31.919Z,5.91
2019-01-06T11:03:30.044Z,5.9
2019-01-06T11:04:30.041Z,5.94
2019-01-06T11:05:29.791Z,6.02
2019-01-06T11:06:29.758Z,5.97
2019-01-06T11:07:30.043Z,5.94
2019-01-06T11:08:29.996Z,5.99
2019-01-06T11:09:29.725Z,5.97
2019-01-06T11:10:29.964Z,5.94
2019-01-06T11:11:29.807Z,5.98
2019-01-06T11:12:29.996Z,5.97
2019-01-06T11:13:29.961Z,5.98
2019-01-06T11:14:29.938Z,5.9
2019-01-06T11:15:29.706Z,5.89
2019-01-06T11:16:29.994Z,5.89
2019-01-06T11:17:29.937Z,5.87
2019-01-06T11:18:29.924Z,5.9
2019-01-06T11:19:29.657Z,5.89
2019-01-06T11:20:29.901Z,5.97
2019-01-06T11:21:29.676Z,5.93
2019-01-06T11:22:29.877Z,5.94
2019-01-06T11:23:29.609Z,5.91
2019-01-06T11:24:29.627Z,5.97
2019-01-06T11:25:29.897Z,6.01
2019-01-06T11:26:29.658Z,5.99
2019-01-06T11:27:34.005Z,5.97
2019-01-06T11:28:29.599Z,5.91
2019-01-06T11:29:29.820Z,5.86
2019-01-06T11:30:29.828Z,5.89
2019-01-06T11:31:29.896Z,5.91
2019-01-06T11:32:29.805Z,5.93
2019-01-06T11:33:29.574Z,5.87
2019-01-06T11:34:29.787Z,5.83
2019-01-06T11:35:29.784Z,5.93
2019-01-06T11:36:29.853Z,5.84
2019-01-06T11:37:29.526Z,5.84
2019-01-06T11:38:29.816Z,5.87
2019-01-06T11:39:29.513Z,5.8
2019-01-06T11:40:29.497Z,5.86
2019-01-06T11:41:29.734Z,5.84
2019-01-06T11:42:29.790Z,5.86
2019-01-06T11:43:29.710Z,5.93
2019-01-06T11:44:29.223Z,5.84
2019-01-06T11:45:29.687Z,5.91
2019-01-06T11:46:29.538Z,5.93
2019-01-06T11:47:29.432Z,5.99
2019-01-06T11:48:29.436Z,5.94
2019-01-06T11:49:29.158Z,5.93
2019-01-06T11:50:29.454Z,5.9
2019-01-06T11:51:29.650Z,5.93
2019-01-06T11:52:29.414Z,5.98
2019-01-06T11:53:29.627Z,5.94
2019-01-06T11:54:29.700Z,5.89
2019-01-06T11:55:29.612Z,5.97
2019-01-06T11:56:29.620Z,5.97
2019-01-06T11:57:29.102Z,5.98
2019-01-06T11:58:29.324Z,5.86
2019-01-06T11:59:29.325Z,5.93
2019-01-06T12:00:29.056Z,5.93
2019-01-06T12:01:29.620Z,5.89
2019-01-06T12:02:29.056Z,5.93
2019-01-06T12:03:29.534Z,5.93
2019-01-06T12:04:29.296Z,5.89
2019-01-06T12:05:29.294Z,5.91
2019-01-06T12:06:29.330Z,5.93
2019-01-06T12:07:29.573Z,5.91
2019-01-06T12:08:29.515Z,5.91
2019-01-06T12:09:29.229Z,5.89
2019-01-06T12:10:29.220Z,5.93
2019-01-06T12:11:29.462Z,5.91
2019-01-06T12:12:29.462Z,5.89
2019-01-06T12:13:29.306Z,5.9
2019-01-06T12:14:29.202Z,5.97
2019-01-06T12:15:29.234Z,5.94
2019-01-06T12:16:29.437Z,5.93
2019-01-06T12:17:29.433Z,5.97
2019-01-06T12:18:28.912Z,5.93
2019-01-06T12:19:36.219Z,5.97
2019-01-06T12:20:29.401Z,5.9
2019-01-06T12:21:29.390Z,5.86
2019-01-06T12:22:29.390Z,5.86
2019-01-06T12:23:29.131Z,5.84
2019-01-06T12:24:29.375Z,5.84
2019-01-06T12:25:29.097Z,5.87
2019-01-06T12:26:28.872Z,5.82
2019-01-06T12:27:29.115Z,5.84
2019-01-06T12:28:33.066Z,5.83
2019-01-06T12:29:29.335Z,5.8
2019-01-06T12:30:29.081Z,5.86
2019-01-06T12:31:29.044Z,5.84
2019-01-06T12:32:29.284Z,5.86
2019-01-06T12:33:29.277Z,5.87
2019-01-06T12:34:29.023Z,5.86
2019-01-06T12:35:29.025Z,5.86
2019-01-06T12:36:28.765Z,5.84
2019-01-06T12:37:29.229Z,5.82
2019-01-06T12:38:29.225Z,5.83
2019-01-06T12:39:29.231Z,5.8
2019-01-06T12:40:29.214Z,5.79
2019-01-06T12:41:28.966Z,5.72
2019-01-06T12:42:29.205Z,5.82
2019-01-06T12:43:29.297Z,5.86
2019-01-06T12:44:29.477Z,5.82
2019-01-06T12:45:28.929Z,5.84
2019-01-06T12:46:29.188Z,5.86
2019-01-06T12:47:28.940Z,5.84
2019-01-06T12:48:28.911Z,5.89
2019-01-06T12:49:29.149Z,5.86
2019-01-06T12:50:30.684Z,5.91
2019-01-06T12:51:29.171Z,5.86
2019-01-06T12:52:29.112Z,5.93
2019-01-06T12:53:28.885Z,5.86
2019-01-06T12:54:29.121Z,5.89
2019-01-06T12:55:28.593Z,5.83
2019-01-06T12:56:28.842Z,5.82
2019-01-06T12:57:29.077Z,5.86
2019-01-06T12:58:29.934Z,5.94
2019-01-06T12:59:29.058Z,5.93
2019-01-06T13:00:28.791Z,5.89
2019-01-06T13:01:28.830Z,5.91
2019-01-06T13:02:28.812Z,5.87
2019-01-06T13:03:28.788Z,5.93
2019-01-06T13:04:28.999Z,6.01
2019-01-06T13:05:28.759Z,5.99
2019-01-06T13:06:29.030Z,5.94
2019-01-06T13:07:28.992Z,5.94
2019-01-06T13:08:29.001Z,5.97
2019-01-06T13:09:28.733Z,6.04
2019-01-06T13:10:28.965Z,6.01
2019-01-06T13:11:28.847Z,6.01
2019-01-06T13:12:28.686Z,6.05
2019-01-06T13:13:36.487Z,6.09
2019-01-06T13:14:28.932Z,6.12
2019-01-06T13:15:28.930Z,6.12
2019-01-06T13:16:28.916Z,6.08
2019-01-06T13:17:28.663Z,6.17
2019-01-06T13:18:28.656Z,6.14
2019-01-06T13:19:28.891Z,6.26
2019-01-06T13:20:28.623Z,6.3